M I D A S
Marine Information and Data Acquisition System
Tripno 1530 of the Zeeleeuw from 2008-07-31 07:58:34 to 2008-07-31 15:05:41
Back to CruiseResearch ActivitiesStationsMapUnderway DataData graphs

EquipmentUnitsComments
TimeDGPSUTC
LatitudeDGPSDM.mWGS84
LongitudeDGPSDM.mWGS84
SpeedMeteo Stationm/sRelative wind speed
DirectionMeteo StationdegRelative wind direction
TemperatureMeteo Stationdeg CelciusAir temperature
PressureMeteo StationPaAtmospheric pressure
HumidityMeteo Station%Relative humidity
Missing or incorrect values are displayed as -999
Metereological data collected by the RV Zeeleeuw from 2008-07-31 07:56:53 to 2008-07-31 15:08:53
Time Latitude Longitude Speed Direction Temperature Pressure Humidity
2008-07-31 07:57 51°13.642 2°55.989 -999 -999 -999 -999 -999
2008-07-31 07:58 51°13.668 2°55.897 -999 -999 -999 -999 -999
2008-07-31 07:59 51°13.698 2°55.816 -999 -999 -999 -999 -999
2008-07-31 08:00 51°13.718 2°55.751 -999 -999 -999 -999 -999
2008-07-31 08:01 51°13.725 2°55.702 -999 -999 -999 -999 -999
2008-07-31 08:02 51°13.727 2°55.691 -999 -999 -999 -999 -999
2008-07-31 08:03 51°13.733 2°55.694 -999 -999 -999 -999 -999
2008-07-31 08:04 51°13.733 2°55.687 -999 -999 -999 -999 -999
2008-07-31 08:05 51°13.732 2°55.682 -999 -999 -999 -999 -999
2008-07-31 08:06 51°13.733 2°55.678 -999 -999 -999 -999 -999
2008-07-31 08:07 51°13.804 2°55.646 -999 -999 -999 -999 -999
2008-07-31 08:08 51°13.905 2°55.57 -999 -999 -999 -999 -999
2008-07-31 08:09 51°13.997 2°55.498 -999 -999 -999 -999 -999
2008-07-31 08:10 51°14.097 2°55.424 -999 -999 -999 -999 -999
2008-07-31 08:11 51°14.193 2°55.338 -999 -999 -999 -999 -999
2008-07-31 08:12 51°14.28 2°55.221 -999 -999 -999 -999 -999
2008-07-31 08:13 51°14.354 2°55.083 -999 -999 -999 -999 -999
2008-07-31 08:14 51°14.457 2°54.894 -999 -999 -999 -999 -999
2008-07-31 08:15 51°14.625 2°54.738 -999 -999 -999 -999 -999
2008-07-31 08:16 51°14.811 2°54.634 -999 -999 -999 -999 -999
2008-07-31 08:17 51°14.999 2°54.563 4.4 349 24.2 101400 69
2008-07-31 08:18 51°15.179 2°54.498 4.9 346 24.2 101410 72
2008-07-31 08:19 51°15.372 2°54.431 4.6 347 24 101410 73
2008-07-31 08:20 51°15.563 2°54.371 3.7 344 23.9 101410 74
2008-07-31 08:21 51°15.752 2°54.31 4.9 344 23.9 101400 76
2008-07-31 08:22 51°15.943 2°54.254 5.5 342 23.8 101400 77
2008-07-31 08:23 51°16.137 2°54.213 5.7 344 23.7 101400 78
2008-07-31 08:24 51°16.313 2°54.136 3.8 344 23.5 101400 79
2008-07-31 08:25 51°16.427 2°53.96 2.6 342 23.4 101400 79
2008-07-31 08:26 51°16.542 2°53.783 3.3 346 23.3 101400 79
2008-07-31 08:27 51°16.657 2°53.618 3.3 348 23.2 101400 80
2008-07-31 08:28 51°16.768 2°53.453 3.2 349 23 101400 80
2008-07-31 08:29 51°16.878 2°53.287 3.4 351 22.9 101410 81
2008-07-31 08:30 51°16.985 2°53.117 4 345 22.8 101400 82
2008-07-31 08:31 51°17.085 2°52.953 3.9 350 22.6 101400 83
2008-07-31 08:32 51°17.191 2°52.78 3.5 350 22.4 101400 84
2008-07-31 08:33 51°17.295 2°52.611 3.9 352 22.1 101400 85
2008-07-31 08:34 51°17.4 2°52.44 4 354 22 101400 86
2008-07-31 08:35 51°17.506 2°52.273 4.3 355 21.8 101400 87
2008-07-31 08:36 51°17.613 2°52.103 5 357 21.7 101400 88
2008-07-31 08:37 51°17.718 2°51.935 5 357 21.6 101400 89
2008-07-31 08:38 51°17.841 2°51.821 7.1 350 21.4 101400 89
2008-07-31 08:39 51°17.98 2°51.824 7.8 348 21.3 101390 90
2008-07-31 08:40 51°18.103 2°51.913 7.5 345 21.2 101390 91
2008-07-31 08:41 51°18.219 2°52.045 8 342 21.3 101390 91
2008-07-31 08:42 51°18.322 2°52.238 10.1 334 21.4 101390 90
2008-07-31 08:43 51°18.404 2°52.496 8.8 331 21.4 101380 90
2008-07-31 08:44 51°18.469 2°52.779 10.1 334 21.4 101390 90
2008-07-31 08:45 51°18.533 2°53.063 8.8 333 21.4 101390 90
2008-07-31 08:46 51°18.564 2°53.36 9.6 328 21.4 101380 91
2008-07-31 08:47 51°18.514 2°53.656 9.2 325 21.4 101390 91
2008-07-31 08:48 51°18.436 2°53.943 9.8 324 21.4 101380 91
2008-07-31 08:49 51°18.365 2°54.192 8.3 322 21.5 101380 91
2008-07-31 08:50 51°18.31 2°54.378 6.9 325 21.6 101380 91
2008-07-31 08:51 51°18.266 2°54.558 7.2 325 21.7 101390 90
2008-07-31 08:52 51°18.229 2°54.736 7.7 325 21.7 101390 90
2008-07-31 08:53 51°18.214 2°54.814 4.2 343 21.8 101390 90
2008-07-31 08:54 51°18.195 2°54.795 3.7 350 21.9 101390 89
2008-07-31 08:55 51°18.173 2°54.771 3.6 346 21.9 101390 89
2008-07-31 08:56 51°18.168 2°54.765 4.6 351 21.8 101390 89
2008-07-31 08:57 51°18.169 2°54.771 4.3 353 21.8 101390 89
2008-07-31 08:58 51°18.169 2°54.773 4.2 356 21.7 101380 89
2008-07-31 08:59 51°18.168 2°54.769 3.9 2 21.7 101390 90
2008-07-31 09:00 51°18.168 2°54.765 4.1 2 21.7 101390 90
2008-07-31 09:01 51°18.169 2°54.766 4 358 21.7 101390 90
2008-07-31 09:02 51°18.17 2°54.766 4 357 21.7 101390 90
2008-07-31 09:03 51°18.17 2°54.766 3.6 359 21.6 101390 90
2008-07-31 09:04 51°18.169 2°54.765 3.6 359 21.7 101390 90
2008-07-31 09:05 51°18.169 2°54.766 3.9 359 21.7 101390 90
2008-07-31 09:06 51°18.173 2°54.77 4.2 359 21.7 101390 90
2008-07-31 09:07 51°18.182 2°54.78 5.1 359 21.7 101390 90
2008-07-31 09:08 51°18.193 2°54.797 4.3 354 21.7 101390 90
2008-07-31 09:09 51°18.204 2°54.812 4 355 21.7 101390 90
2008-07-31 09:10 51°18.213 2°54.824 3.9 2 21.7 101380 90
2008-07-31 09:11 51°18.237 2°54.824 3.9 12 21.7 101380 90
2008-07-31 09:12 51°18.302 2°54.798 5.2 356 21.7 101380 90
2008-07-31 09:13 51°18.411 2°54.75 6.2 350 21.7 101380 90
2008-07-31 09:14 51°18.531 2°54.704 5.1 356 21.6 101380 90
2008-07-31 09:15 51°18.6 2°54.681 5.3 360 21.6 101380 90
2008-07-31 09:16 51°18.647 2°54.665 5.1 1 21.6 101380 90
2008-07-31 09:17 51°18.682 2°54.654 4.6 3 21.6 101380 90
2008-07-31 09:18 51°18.711 2°54.641 4.1 5 21.6 101380 91
2008-07-31 09:19 51°18.736 2°54.63 4.7 4 21.5 101370 91
2008-07-31 09:20 51°18.759 2°54.618 4.2 6 21.5 101370 91
2008-07-31 09:21 51°18.78 2°54.608 4.9 7 21.4 101370 91
2008-07-31 09:22 51°18.8 2°54.6 4.6 7 21.4 101370 91
2008-07-31 09:23 51°18.82 2°54.591 4.9 7 21.4 101360 91
2008-07-31 09:24 51°18.839 2°54.584 4.4 6 21.4 101360 91
2008-07-31 09:25 51°18.848 2°54.578 4.4 7 21.4 101370 91
2008-07-31 09:26 51°18.843 2°54.576 4.8 15 21.4 101360 92
2008-07-31 09:27 51°18.825 2°54.585 5.1 24 21.4 101370 92
2008-07-31 09:28 51°18.814 2°54.596 5.3 22 21.4 101360 92
2008-07-31 09:29 51°18.82 2°54.595 5.1 17 21.5 101370 92
2008-07-31 09:30 51°18.824 2°54.593 5.2 17 21.5 101360 91
2008-07-31 09:31 51°18.828 2°54.592 5.5 17 21.6 101360 91
2008-07-31 09:32 51°18.83 2°54.593 5.4 17 21.7 101360 91
2008-07-31 09:33 51°18.831 2°54.594 5.2 17 21.7 101360 91
2008-07-31 09:34 51°18.83 2°54.595 5.3 22 21.8 101370 91
2008-07-31 09:35 51°18.828 2°54.597 4.4 22 21.8 101360 90
2008-07-31 09:36 51°18.827 2°54.6 4.8 25 21.8 101370 90
2008-07-31 09:37 51°18.826 2°54.602 4.3 28 21.9 101370 90
2008-07-31 09:38 51°18.825 2°54.604 4.2 29 21.9 101360 90
2008-07-31 09:39 51°18.825 2°54.606 4.2 31 22 101360 89
2008-07-31 09:40 51°18.826 2°54.606 4.2 31 22 101360 89
2008-07-31 09:41 51°18.828 2°54.606 4.6 29 22 101360 89
2008-07-31 09:42 51°18.83 2°54.606 4.5 27 22 101360 89
2008-07-31 09:43 51°18.832 2°54.605 4.3 27 22 101350 89
2008-07-31 09:44 51°18.835 2°54.605 4.5 30 22 101350 89
2008-07-31 09:45 51°18.837 2°54.606 4.1 31 22 101350 90
2008-07-31 09:46 51°18.839 2°54.607 4.5 34 21.9 101350 90
2008-07-31 09:47 51°18.841 2°54.608 4.6 34 21.9 101350 90
2008-07-31 09:48 51°18.842 2°54.608 4.4 38 21.9 101350 90
2008-07-31 09:49 51°18.844 2°54.608 4.7 38 21.9 101350 90
2008-07-31 09:50 51°18.845 2°54.608 3.8 40 21.9 101350 90
2008-07-31 09:51 51°18.847 2°54.607 3.8 40 21.9 101350 90
2008-07-31 09:52 51°18.849 2°54.607 4.7 40 21.9 101350 90
2008-07-31 09:53 51°18.851 2°54.607 4.1 40 21.9 101340 90
2008-07-31 09:54 51°18.852 2°54.608 4.3 41 21.9 101340 90
2008-07-31 09:55 51°18.854 2°54.608 4.5 43 21.9 101340 90
2008-07-31 09:56 51°18.855 2°54.607 4.7 43 21.9 101340 90
2008-07-31 09:57 51°18.857 2°54.607 4.9 43 21.9 101340 90
2008-07-31 09:58 51°18.858 2°54.606 4.9 43 21.9 101340 90
2008-07-31 09:59 51°18.859 2°54.605 4.5 24 21.9 101340 90
2008-07-31 10:00 51°18.86 2°54.605 4.2 22 21.9 101340 90
2008-07-31 10:01 51°18.861 2°54.604 4.3 22 21.8 101340 90
2008-07-31 10:02 51°18.861 2°54.604 4.1 28 21.9 101340 90
2008-07-31 10:03 51°18.861 2°54.603 3.9 22 21.9 101340 90
2008-07-31 10:04 51°18.861 2°54.604 4.4 22 21.8 101340 90
2008-07-31 10:05 51°18.861 2°54.604 4 30 21.8 101330 91
2008-07-31 10:06 51°18.862 2°54.604 3.7 24 21.8 101330 91
2008-07-31 10:07 51°18.862 2°54.604 2.8 25 21.9 101330 91
2008-07-31 10:08 51°18.862 2°54.605 2.3 26 22 101330 91
2008-07-31 10:09 51°18.862 2°54.608 3.9 30 22.2 101330 91
2008-07-31 10:10 51°18.862 2°54.611 3.9 26 22.1 101330 90
2008-07-31 10:11 51°18.862 2°54.615 4.5 24 22 101330 90
2008-07-31 10:12 51°18.86 2°54.617 4 23 21.8 101330 91
2008-07-31 10:13 51°18.858 2°54.618 3.7 24 21.8 101330 91
2008-07-31 10:14 51°18.857 2°54.619 4.5 24 21.7 101330 91
2008-07-31 10:15 51°18.857 2°54.619 3.4 27 21.7 101340 91
2008-07-31 10:16 51°18.856 2°54.619 3.5 22 21.7 101340 92
2008-07-31 10:17 51°18.857 2°54.62 3.3 30 21.6 101340 92
2008-07-31 10:18 51°18.857 2°54.62 3 30 21.6 101340 92
2008-07-31 10:19 51°18.858 2°54.619 3.2 26 21.6 101340 92
2008-07-31 10:20 51°18.858 2°54.619 3.3 29 21.6 101340 92
2008-07-31 10:21 51°18.858 2°54.619 3.7 23 21.6 101340 92
2008-07-31 10:22 51°18.858 2°54.618 3.3 23 21.6 101340 92
2008-07-31 10:23 51°18.858 2°54.619 3.5 23 21.6 101330 92
2008-07-31 10:24 51°18.858 2°54.62 3.6 22 21.6 101340 92
2008-07-31 10:25 51°18.858 2°54.619 3.5 30 21.6 101330 92
2008-07-31 10:26 51°18.859 2°54.619 2.9 24 21.7 101340 92
2008-07-31 10:27 51°18.859 2°54.619 2.9 23 21.7 101340 92
2008-07-31 10:28 51°18.86 2°54.619 2.5 31 21.7 101340 92
2008-07-31 10:29 51°18.86 2°54.619 3.4 24 21.7 101340 91
2008-07-31 10:30 51°18.859 2°54.619 3.6 28 21.7 101340 91
2008-07-31 10:31 51°18.859 2°54.62 3.7 31 21.8 101340 91
2008-07-31 10:32 51°18.858 2°54.621 3.5 31 21.8 101330 91
2008-07-31 10:33 51°18.857 2°54.621 3 23 21.8 101330 91
2008-07-31 10:34 51°18.857 2°54.621 2.6 32 21.9 101330 91
2008-07-31 10:35 51°18.857 2°54.621 3.2 23 21.9 101330 91
2008-07-31 10:36 51°18.857 2°54.621 3.4 30 21.9 101330 91
2008-07-31 10:37 51°18.857 2°54.621 3.7 30 21.9 101320 91
2008-07-31 10:38 51°18.857 2°54.621 4.2 29 21.9 101320 91
2008-07-31 10:39 51°18.857 2°54.62 3.4 25 21.9 101320 90
2008-07-31 10:40 51°18.858 2°54.62 3.9 26 21.9 101320 91
2008-07-31 10:41 51°18.858 2°54.62 3.6 30 21.9 101320 90
2008-07-31 10:42 51°18.858 2°54.621 4.2 23 21.9 101320 91
2008-07-31 10:43 51°18.857 2°54.621 3.2 28 21.9 101310 90
2008-07-31 10:44 51°18.857 2°54.622 4.1 31 21.9 101310 90
2008-07-31 10:45 51°18.856 2°54.623 5.1 24 21.8 101310 90
2008-07-31 10:46 51°18.855 2°54.622 4.2 29 21.9 101310 90
2008-07-31 10:47 51°18.855 2°54.622 3.2 24 21.9 101300 90
2008-07-31 10:48 51°18.855 2°54.622 3.2 30 21.9 101300 90
2008-07-31 10:49 51°18.855 2°54.623 3.7 32 21.9 101300 90
2008-07-31 10:50 51°18.855 2°54.622 3.8 31 21.8 101290 90
2008-07-31 10:51 51°18.856 2°54.623 4.2 30 21.8 101300 90
2008-07-31 10:52 51°18.857 2°54.623 3.8 31 21.9 101300 90
2008-07-31 10:53 51°18.857 2°54.623 4 30 21.8 101290 90
2008-07-31 10:54 51°18.857 2°54.623 4.1 26 21.9 101290 90
2008-07-31 10:55 51°18.857 2°54.624 4.3 28 21.8 101290 91
2008-07-31 10:56 51°18.852 2°54.624 4.8 25 21.9 101290 91
2008-07-31 10:57 51°18.855 2°54.624 3.6 24 21.9 101290 91
2008-07-31 10:58 51°18.855 2°54.624 4.1 26 21.9 101290 91
2008-07-31 10:59 51°18.855 2°54.624 5.1 26 21.8 101290 91
2008-07-31 11:00 51°18.855 2°54.624 5.1 25 21.9 101290 91
2008-07-31 11:01 51°18.854 2°54.625 4.3 29 21.9 101290 91
2008-07-31 11:02 51°18.854 2°54.625 4.9 29 21.9 101280 91
2008-07-31 11:03 51°18.855 2°54.625 4.1 30 21.9 101290 91
2008-07-31 11:04 51°18.855 2°54.625 4.6 23 21.9 101290 91
2008-07-31 11:05 51°18.854 2°54.625 4.4 23 21.9 101290 91
2008-07-31 11:06 51°18.853 2°54.626 4.6 25 21.9 101280 91
2008-07-31 11:07 51°18.852 2°54.627 4.9 23 22 101290 90
2008-07-31 11:08 51°18.852 2°54.627 4.2 24 22 101290 90
2008-07-31 11:09 51°18.853 2°54.627 5.5 23 22 101280 90
2008-07-31 11:10 51°18.852 2°54.627 4.3 22 22 101280 90
2008-07-31 11:11 51°18.852 2°54.627 4.9 28 22 101280 90
2008-07-31 11:12 51°18.852 2°54.627 4.4 23 22 101280 90
2008-07-31 11:13 51°18.852 2°54.627 4.4 30 22 101280 90
2008-07-31 11:14 51°18.852 2°54.627 5.2 32 22.1 101280 90
2008-07-31 11:15 51°18.852 2°54.627 5 29 22.1 101280 89
2008-07-31 11:16 51°18.852 2°54.627 5.1 25 22.1 101270 89
2008-07-31 11:17 51°18.853 2°54.627 5.1 28 22.1 101270 89
2008-07-31 11:18 51°18.853 2°54.626 4.6 24 22.2 101270 89
2008-07-31 11:19 51°18.854 2°54.626 5.9 25 22.2 101270 89
2008-07-31 11:20 51°18.853 2°54.627 4.4 25 22.3 101270 88
2008-07-31 11:21 51°18.852 2°54.628 5.3 26 22.3 101270 88
2008-07-31 11:22 51°18.852 2°54.627 4.1 23 22.2 101270 88
2008-07-31 11:23 51°18.852 2°54.627 4.7 27 22.3 101270 88
2008-07-31 11:24 51°18.852 2°54.627 5.2 24 22.3 101270 88
2008-07-31 11:25 51°18.852 2°54.627 4.7 26 22.3 101270 88
2008-07-31 11:26 51°18.852 2°54.627 3.9 29 22.3 101270 88
2008-07-31 11:27 51°18.852 2°54.628 3.9 22 22.3 101270 88
2008-07-31 11:28 51°18.852 2°54.628 4.4 28 22.3 101270 88
2008-07-31 11:29 51°18.852 2°54.627 3.9 22 22.3 101270 88
2008-07-31 11:30 51°18.853 2°54.627 5.1 28 22.3 101260 88
2008-07-31 11:31 51°18.853 2°54.627 4.8 30 22.3 101270 88
2008-07-31 11:32 51°18.854 2°54.624 4.7 29 22.3 101260 88
2008-07-31 11:33 51°18.855 2°54.624 4.9 28 22.3 101260 88
2008-07-31 11:34 51°18.853 2°54.625 4.3 30 22.3 101250 88
2008-07-31 11:35 51°18.852 2°54.625 4.3 22 22.3 101250 88
2008-07-31 11:36 51°18.855 2°54.624 5.1 26 22.3 101250 88
2008-07-31 11:37 51°18.855 2°54.625 5.2 24 22.3 101250 87
2008-07-31 11:38 51°18.855 2°54.625 5.5 29 22.3 101250 87
2008-07-31 11:39 51°18.854 2°54.624 4.5 23 22.3 101250 87
2008-07-31 11:40 51°18.854 2°54.625 4.8 28 22.3 101250 87
2008-07-31 11:41 51°18.855 2°54.625 4.9 29 22.3 101250 87
2008-07-31 11:42 51°18.855 2°54.625 5 28 22.3 101250 87
2008-07-31 11:43 51°18.854 2°54.626 5.3 28 22.3 101250 87
2008-07-31 11:44 51°18.853 2°54.625 2.6 31 22.4 101250 87
2008-07-31 11:45 51°18.854 2°54.625 4.7 24 22.4 101240 87
2008-07-31 11:46 51°18.854 2°54.626 4.7 31 22.4 101240 86
2008-07-31 11:47 51°18.854 2°54.626 4.7 23 22.4 101250 86
2008-07-31 11:48 51°18.856 2°54.625 4.8 22 22.4 101250 86
2008-07-31 11:49 51°18.855 2°54.624 5 25 22.4 101240 86
2008-07-31 11:50 51°18.853 2°54.625 4.9 23 22.4 101240 86
2008-07-31 11:51 51°18.853 2°54.625 4.8 24 22.4 101240 86
2008-07-31 11:52 51°18.853 2°54.626 5.4 27 22.4 101240 86
2008-07-31 11:53 51°18.853 2°54.625 4.8 29 22.5 101240 86
2008-07-31 11:54 51°18.853 2°54.626 4.5 32 22.5 101240 86
2008-07-31 11:55 51°18.852 2°54.625 4.8 24 22.5 101240 86
2008-07-31 11:56 51°18.853 2°54.625 5.3 24 22.5 101230 86
2008-07-31 11:57 51°18.853 2°54.625 4.9 31 22.5 101230 86
2008-07-31 11:58 51°18.853 2°54.625 5.3 26 22.5 101230 86
2008-07-31 11:59 51°18.852 2°54.625 4.5 26 22.5 101230 86
2008-07-31 12:00 51°18.853 2°54.625 5.3 30 22.5 101230 86
2008-07-31 12:01 51°18.853 2°54.625 5.2 23 22.5 101230 86
2008-07-31 12:02 51°18.853 2°54.625 5.7 27 22.5 101230 86
2008-07-31 12:03 51°18.852 2°54.625 5.4 29 22.5 101230 86
2008-07-31 12:04 51°18.852 2°54.625 5 30 22.4 101220 86
2008-07-31 12:05 51°18.852 2°54.626 5.3 21 22.4 101220 86
2008-07-31 12:06 51°18.852 2°54.625 3.3 23 22.4 101220 86
2008-07-31 12:07 51°18.852 2°54.625 5.7 24 22.4 101220 87
2008-07-31 12:08 51°18.852 2°54.625 5 28 22.4 101220 86
2008-07-31 12:09 51°18.852 2°54.626 5.2 30 22.4 101220 86
2008-07-31 12:10 51°18.852 2°54.626 4.6 30 22.4 101220 86
2008-07-31 12:11 51°18.853 2°54.625 5.4 30 22.4 101220 87
2008-07-31 12:12 51°18.852 2°54.625 5.3 24 22.3 101220 87
2008-07-31 12:13 51°18.852 2°54.625 5.1 24 22.4 101220 87
2008-07-31 12:14 51°18.852 2°54.625 5 25 22.4 101220 87
2008-07-31 12:15 51°18.852 2°54.625 5.5 26 22.4 101220 87
2008-07-31 12:16 51°18.852 2°54.625 4.7 24 22.3 101220 87
2008-07-31 12:17 51°18.853 2°54.626 4.5 22 22.3 101220 87
2008-07-31 12:18 51°18.853 2°54.625 4.7 32 22.3 101220 87
2008-07-31 12:19 51°18.854 2°54.625 5.3 26 22.3 101230 87
2008-07-31 12:20 51°18.854 2°54.625 5.4 32 22.3 101220 87
2008-07-31 12:21 51°18.854 2°54.624 5.3 31 22.3 101220 87
2008-07-31 12:22 51°18.854 2°54.624 5.1 31 22.3 101220 87
2008-07-31 12:23 51°18.853 2°54.625 5.7 25 22.3 101210 87
2008-07-31 12:24 51°18.853 2°54.625 4.5 29 22.4 101220 87
2008-07-31 12:25 51°18.852 2°54.624 4.9 31 22.3 101220 87
2008-07-31 12:26 51°18.852 2°54.624 4.3 31 22.3 101210 87
2008-07-31 12:27 51°18.852 2°54.625 4.7 25 22.2 101210 87
2008-07-31 12:28 51°18.853 2°54.625 4.2 29 22.2 101210 88
2008-07-31 12:29 51°18.853 2°54.624 4.7 27 22.2 101210 88
2008-07-31 12:30 51°18.854 2°54.624 5.3 26 22.1 101210 88
2008-07-31 12:31 51°18.854 2°54.624 5.8 28 22.1 101210 88
2008-07-31 12:32 51°18.853 2°54.624 5.4 24 22.1 101200 88
2008-07-31 12:33 51°18.852 2°54.624 5.7 27 22.2 101200 88
2008-07-31 12:34 51°18.851 2°54.624 4.8 23 22.2 101200 88
2008-07-31 12:35 51°18.851 2°54.624 5.5 24 22.2 101200 88
2008-07-31 12:36 51°18.852 2°54.624 5.4 29 22.1 101200 88
2008-07-31 12:37 51°18.852 2°54.624 4.9 23 22.2 101200 88
2008-07-31 12:38 51°18.852 2°54.624 6.4 24 22.1 101200 88
2008-07-31 12:39 51°18.852 2°54.624 6.4 26 22.1 101200 88
2008-07-31 12:40 51°18.852 2°54.624 6 25 22.1 101200 88
2008-07-31 12:41 51°18.852 2°54.624 5 29 22.1 101190 88
2008-07-31 12:42 51°18.852 2°54.624 5.4 23 22.1 101190 89
2008-07-31 12:43 51°18.852 2°54.624 6.3 31 22.1 101190 89
2008-07-31 12:44 51°18.852 2°54.623 5.5 29 22.1 101190 89
2008-07-31 12:45 51°18.853 2°54.623 5 27 22.1 101190 89
2008-07-31 12:46 51°18.853 2°54.623 4.6 24 22.1 101190 89
2008-07-31 12:47 51°18.853 2°54.624 5 31 22.1 101190 88
2008-07-31 12:48 51°18.853 2°54.624 5.6 26 22.1 101190 88
2008-07-31 12:49 51°18.853 2°54.624 4.8 31 22.1 101190 88
2008-07-31 12:50 51°18.852 2°54.625 4.5 30 22.1 101190 88
2008-07-31 12:51 51°18.852 2°54.624 5.4 30 22.1 101190 88
2008-07-31 12:52 51°18.852 2°54.624 5.4 23 22.1 101190 88
2008-07-31 12:53 51°18.852 2°54.624 6 29 22.1 101190 89
2008-07-31 12:54 51°18.852 2°54.624 5.4 30 22.1 101190 89
2008-07-31 12:55 51°18.852 2°54.623 4.6 23 22.1 101190 89
2008-07-31 12:56 51°18.852 2°54.623 5.7 29 22.1 101190 88
2008-07-31 12:57 51°18.852 2°54.623 6 29 22.1 101190 88
2008-07-31 12:58 51°18.852 2°54.624 5.2 23 22.2 101190 88
2008-07-31 12:59 51°18.852 2°54.623 5.5 31 22.2 101180 88
2008-07-31 13:00 51°18.853 2°54.623 5.7 29 22.2 101190 88
2008-07-31 13:01 51°18.852 2°54.623 6.3 31 22.2 101180 88
2008-07-31 13:02 51°18.852 2°54.622 6.3 28 22.2 101190 88
2008-07-31 13:03 51°18.851 2°54.622 6.7 24 22.2 101190 88
2008-07-31 13:04 51°18.851 2°54.622 6.4 22 22.3 101180 88
2008-07-31 13:05 51°18.851 2°54.622 5.6 22 22.3 101180 87
2008-07-31 13:06 51°18.852 2°54.622 5.8 26 22.3 101180 87
2008-07-31 13:07 51°18.852 2°54.623 5.5 30 22.4 101180 87
2008-07-31 13:08 51°18.852 2°54.623 5.8 29 22.4 101180 87
2008-07-31 13:09 51°18.853 2°54.623 5.1 31 22.4 101180 87
2008-07-31 13:10 51°18.853 2°54.622 5.2 27 22.4 101180 87
2008-07-31 13:11 51°18.853 2°54.623 5.1 31 22.3 101180 87
2008-07-31 13:12 51°18.852 2°54.622 5.1 28 22.3 101180 87
2008-07-31 13:13 51°18.852 2°54.621 6.2 28 22.3 101180 88
2008-07-31 13:14 51°18.851 2°54.621 5.5 21 22.3 101180 88
2008-07-31 13:15 51°18.851 2°54.621 6.3 31 22.2 101180 88
2008-07-31 13:16 51°18.851 2°54.621 6.3 29 22.2 101170 88
2008-07-31 13:17 51°18.851 2°54.621 6 28 22.2 101170 88
2008-07-31 13:18 51°18.852 2°54.622 6 23 22.1 101170 88
2008-07-31 13:19 51°18.852 2°54.622 5.1 23 22.1 101170 88
2008-07-31 13:20 51°18.852 2°54.622 6.1 22 22.2 101170 88
2008-07-31 13:21 51°18.852 2°54.623 6 29 22.2 101170 88
2008-07-31 13:22 51°18.852 2°54.623 4.6 22 22.2 101170 88
2008-07-31 13:23 51°18.852 2°54.623 3.5 28 22.2 101170 88
2008-07-31 13:24 51°18.851 2°54.622 4.1 26 22.2 101160 88
2008-07-31 13:25 51°18.852 2°54.621 5.2 30 22.2 101160 88
2008-07-31 13:26 51°18.852 2°54.619 6.4 28 22.2 101160 88
2008-07-31 13:27 51°18.852 2°54.618 6.1 29 22.2 101160 88
2008-07-31 13:28 51°18.851 2°54.618 5.9 28 22.2 101160 88
2008-07-31 13:29 51°18.852 2°54.618 5.2 28 22.3 101160 88
2008-07-31 13:30 51°18.853 2°54.619 5.4 30 22.3 101150 88
2008-07-31 13:31 51°18.854 2°54.619 5.2 29 22.3 101150 87
2008-07-31 13:32 51°18.855 2°54.619 5.5 31 22.3 101150 87
2008-07-31 13:33 51°18.856 2°54.619 5.9 31 22.3 101150 87
2008-07-31 13:34 51°18.855 2°54.619 5.9 31 22.4 101150 87
2008-07-31 13:35 51°18.855 2°54.619 5.4 24 22.4 101150 87
2008-07-31 13:36 51°18.856 2°54.619 3.8 33 22.4 101150 88
2008-07-31 13:37 51°18.856 2°54.62 4.1 23 22.4 101150 88
2008-07-31 13:38 51°18.856 2°54.62 4.1 26 22.4 101150 88
2008-07-31 13:39 51°18.856 2°54.621 4.5 30 22.4 101140 88
2008-07-31 13:40 51°18.856 2°54.621 4.9 32 22.4 101150 88
2008-07-31 13:41 51°18.855 2°54.621 5.3 29 22.4 101150 88
2008-07-31 13:42 51°18.854 2°54.621 4.7 31 22.4 101140 88
2008-07-31 13:43 51°18.854 2°54.622 5.1 25 22.4 101140 88
2008-07-31 13:44 51°18.854 2°54.621 5.4 25 22.4 101140 88
2008-07-31 13:45 51°18.855 2°54.621 5.6 28 22.4 101140 88
2008-07-31 13:46 51°18.855 2°54.621 5.6 27 22.5 101140 87
2008-07-31 13:47 51°18.856 2°54.62 5.8 25 22.5 101140 87
2008-07-31 13:48 51°18.856 2°54.62 5.9 29 22.5 101140 87
2008-07-31 13:49 51°18.856 2°54.62 5.2 28 22.5 101130 87
2008-07-31 13:50 51°18.857 2°54.622 5.5 26 22.5 101130 87
2008-07-31 13:51 51°18.857 2°54.622 4.5 24 22.5 101130 87
2008-07-31 13:52 51°18.857 2°54.621 5.2 25 22.5 101130 87
2008-07-31 13:53 51°18.857 2°54.621 5 30 22.4 101130 87
2008-07-31 13:54 51°18.857 2°54.621 5.2 22 22.4 101130 87
2008-07-31 13:55 51°18.857 2°54.62 5.4 22 22.3 101130 88
2008-07-31 13:56 51°18.857 2°54.62 5.1 27 22.3 101130 88
2008-07-31 13:57 51°18.857 2°54.619 4.8 28 22.3 101130 88
2008-07-31 13:58 51°18.857 2°54.62 4.1 29 22.3 101130 88
2008-07-31 13:59 51°18.857 2°54.619 4.4 30 22.2 101130 88
2008-07-31 14:00 51°18.858 2°54.618 5.4 29 22.2 101130 88
2008-07-31 14:01 51°18.858 2°54.618 4.9 30 22.2 101130 88
2008-07-31 14:02 51°18.858 2°54.618 5.8 31 22.3 101130 88
2008-07-31 14:03 51°18.858 2°54.617 4.5 27 22.3 101130 88
2008-07-31 14:04 51°18.858 2°54.616 5.7 24 22.3 101130 88
2008-07-31 14:05 51°18.858 2°54.616 5.5 29 22.3 101120 88
2008-07-31 14:06 51°18.853 2°54.615 4.1 270 22.3 101130 88
2008-07-31 14:07 51°18.848 2°54.608 4.9 25 22.4 101130 88
2008-07-31 14:08 51°18.851 2°54.597 4.2 22 22.4 101130 88
2008-07-31 14:09 51°18.857 2°54.586 3 28 22.4 101130 88
2008-07-31 14:10 51°18.863 2°54.578 3.2 27 22.6 101130 89
2008-07-31 14:11 51°18.866 2°54.566 3 28 22.8 101130 87
2008-07-31 14:12 51°18.834 2°54.558 6.4 250 22.9 101130 86
2008-07-31 14:13 51°18.803 2°54.639 6.5 25 23 101120 86
2008-07-31 14:14 51°18.792 2°54.725 7.1 30 22.9 101120 86
2008-07-31 14:15 51°18.789 2°54.788 5.4 31 22.9 101120 86
2008-07-31 14:16 51°18.787 2°54.839 5.3 23 22.9 101120 86
2008-07-31 14:17 51°18.784 2°54.883 4.6 27 22.9 101120 86
2008-07-31 14:18 51°18.78 2°54.92 5.4 28 23 101120 86
2008-07-31 14:19 51°18.776 2°54.954 4.3 29 23 101120 85
2008-07-31 14:20 51°18.773 2°54.986 4.3 23 23.1 101120 86
2008-07-31 14:21 51°18.771 2°55.017 4.5 23 23.1 101120 85
2008-07-31 14:22 51°18.77 2°55.047 5.5 24 23.1 101120 85
2008-07-31 14:23 51°18.769 2°55.077 4.4 29 23.1 101120 86
2008-07-31 14:24 51°18.767 2°55.106 4.4 241 23 101120 85
2008-07-31 14:25 51°18.767 2°55.121 4.4 23 23 101120 86
2008-07-31 14:26 51°18.767 2°55.134 5.4 246 23 101120 86
2008-07-31 14:27 51°18.766 2°55.146 5 23 23 101120 86
2008-07-31 14:28 51°18.766 2°55.155 5.2 25 23 101120 86
2008-07-31 14:29 51°18.767 2°55.161 5.8 23 23 101120 86
2008-07-31 14:30 51°18.769 2°55.166 5.5 27 23 101120 86
2008-07-31 14:31 51°18.771 2°55.17 5.5 24 23 101120 86
2008-07-31 14:32 51°18.794 2°55.224 8.2 341 23 101110 86
2008-07-31 14:33 51°18.862 2°55.178 4.8 26 22.9 101110 86
2008-07-31 14:34 51°18.808 2°55.065 1.6 262 22.8 101120 87
2008-07-31 14:35 51°18.671 2°54.863 1.7 25 22.8 101120 87
2008-07-31 14:36 51°18.536 2°54.626 1.2 316 22.8 101110 87
2008-07-31 14:37 51°18.392 2°54.396 1.6 27 22.9 101110 87
2008-07-31 14:38 51°18.238 2°54.206 3.1 325 23 101110 87
2008-07-31 14:39 51°18.073 2°54.03 3.2 320 23 101120 86
2008-07-31 14:40 51°17.913 2°53.842 2.5 327 23 101110 87
2008-07-31 14:41 51°17.761 2°53.648 2.3 29 23 101120 86
2008-07-31 14:42 51°17.592 2°53.482 2.8 32 23 101110 86
2008-07-31 14:43 51°17.419 2°53.344 3.4 26 23 101100 86
2008-07-31 14:44 51°17.238 2°53.23 3.7 29 23.1 101100 86
2008-07-31 14:45 51°17.055 2°53.134 3.5 32 23.1 101100 86
2008-07-31 14:46 51°16.865 2°53.071 3.9 24 23.2 101100 86
2008-07-31 14:47 51°16.67 2°53.015 4 320 23.2 101100 86
2008-07-31 14:48 51°16.473 2°53.035 5.9 320 23.2 101100 85
2008-07-31 14:49 51°16.282 2°53.127 6.4 317 23.4 101090 84
2008-07-31 14:50 51°16.095 2°53.237 6.7 323 23.9 101090 81
2008-07-31 14:51 51°15.915 2°53.374 7.8 331 24.3 101080 78
2008-07-31 14:52 51°15.734 2°53.508 10.8 332 25.3 101080 73
2008-07-31 14:53 51°15.549 2°53.643 9.3 336 26.1 101080 71
2008-07-31 14:54 51°15.384 2°53.772 10.4 332 26.7 101070 69
2008-07-31 14:55 51°15.216 2°53.902 11.3 332 27.4 101070 52
2008-07-31 14:56 51°15.126 2°54.041 8.1 338 28.1 101070 46
2008-07-31 14:57 51°15.049 2°54.2 8.5 340 28.5 101070 45
2008-07-31 14:58 51°14.966 2°54.348 9.1 340 28.8 101070 44
2008-07-31 14:59 51°14.873 2°54.483 8 338 29 101070 43
2008-07-31 15:00 51°14.783 2°54.604 6.7 335 29.1 101070 43
2008-07-31 15:01 51°14.714 2°54.692 6.7 340 29.2 101080 43
2008-07-31 15:02 51°14.648 2°54.777 7.5 337 29.3 101070 42
2008-07-31 15:03 51°14.544 2°54.903 8.5 338 29.4 101070 42
2008-07-31 15:04 51°14.419 2°55.065 8.2 325 29.5 101060 42
2008-07-31 15:05 51°14.329 2°55.187 9.1 331 29.5 101070 43
2008-07-31 15:06 51°14.218 2°55.328 8.8 326 29.5 101060 43
2008-07-31 15:07 51°14.113 2°55.417 6.9 331 29.5 101060 42